createdAt,value
2018-04-13T00:00:41.432Z,1017.69
2018-04-13T00:01:41.429Z,1017.65
2018-04-13T00:02:41.424Z,1017.65
2018-04-13T00:03:41.420Z,1017.71
2018-04-13T00:04:41.420Z,1017.63
2018-04-13T00:05:41.413Z,1017.63
2018-04-13T00:06:41.409Z,1017.64
2018-04-13T00:07:41.405Z,1017.63
2018-04-13T00:08:41.402Z,1017.71
2018-04-13T00:09:41.397Z,1017.63
2018-04-13T00:10:41.394Z,1017.66
2018-04-13T00:11:41.390Z,1017.65
2018-04-13T00:12:41.386Z,1017.69
2018-04-13T00:13:41.382Z,1017.67
2018-04-13T00:14:41.378Z,1017.67
2018-04-13T00:15:41.375Z,1017.7
2018-04-13T00:16:41.372Z,1017.69
2018-04-13T00:17:41.367Z,1017.73
2018-04-13T00:18:41.364Z,1017.71
2018-04-13T00:19:41.378Z,1017.71
2018-04-13T00:20:41.356Z,1017.74
2018-04-13T00:21:41.356Z,1017.7
2018-04-13T00:22:41.348Z,1017.72
2018-04-13T00:23:41.345Z,1017.7
2018-04-13T00:24:41.341Z,1017.7
2018-04-13T00:25:41.338Z,1017.7
2018-04-13T00:26:41.334Z,1017.71
2018-04-13T00:27:41.330Z,1017.67
2018-04-13T00:28:41.326Z,1017.7
2018-04-13T00:29:41.323Z,1017.73
2018-04-13T00:30:41.320Z,1017.72
2018-04-13T00:31:41.313Z,1017.72
2018-04-13T00:32:41.312Z,1017.69
2018-04-13T00:33:41.313Z,1017.7
2018-04-13T00:34:41.304Z,1017.75
2018-04-13T00:35:41.298Z,1017.72
2018-04-13T00:36:41.295Z,1017.73
2018-04-13T00:37:41.292Z,1017.73
2018-04-13T00:38:41.299Z,1017.7
2018-04-13T00:39:41.286Z,1017.7
2018-04-13T00:40:41.281Z,1017.74
2018-04-13T00:41:41.276Z,1017.72
2018-04-13T00:42:41.271Z,1017.68
2018-04-13T00:43:41.268Z,1017.71
2018-04-13T00:44:41.264Z,1017.7
2018-04-13T00:45:41.261Z,1017.69
2018-04-13T00:46:41.256Z,1017.65
2018-04-13T00:47:41.252Z,1017.61
2018-04-13T00:48:41.249Z,1017.62
2018-04-13T00:49:41.245Z,1017.63
2018-04-13T00:50:41.241Z,1017.62
2018-04-13T00:51:41.237Z,1017.64
2018-04-13T00:52:41.233Z,1017.57
2018-04-13T00:53:41.229Z,1017.52
2018-04-13T00:54:41.225Z,1017.62
2018-04-13T00:55:41.224Z,1017.57
2018-04-13T00:56:41.221Z,1017.51
2018-04-13T00:57:41.213Z,1017.53
2018-04-13T00:58:41.209Z,1017.53
2018-04-13T00:59:41.205Z,1017.53
2018-04-13T01:00:41.203Z,1017.57
2018-04-13T01:01:41.197Z,1017.55
2018-04-13T01:02:41.194Z,1017.55
2018-04-13T01:03:41.190Z,1017.58
2018-04-13T01:04:41.185Z,1017.55
2018-04-13T01:05:41.181Z,1017.55
2018-04-13T01:06:41.181Z,1017.56
2018-04-13T01:07:41.175Z,1017.51
2018-04-13T01:08:41.195Z,1017.56
2018-04-13T01:09:41.169Z,1017.55
2018-04-13T01:10:41.166Z,1017.52
2018-04-13T01:11:41.159Z,1017.53
2018-04-13T01:12:41.163Z,1017.56
2018-04-13T01:13:41.151Z,1017.55
2018-04-13T01:14:41.147Z,1017.54
2018-04-13T01:15:41.142Z,1017.54
2018-04-13T01:16:41.138Z,1017.53
2018-04-13T01:17:41.134Z,1017.54
2018-04-13T01:18:41.136Z,1017.54
2018-04-13T01:19:41.126Z,1017.5
2018-04-13T01:20:41.123Z,1017.53
2018-04-13T01:21:41.119Z,1017.49
2018-04-13T01:22:41.116Z,1017.5
2018-04-13T01:23:41.112Z,1017.54
2018-04-13T01:24:41.107Z,1017.54
2018-04-13T01:25:41.104Z,1017.56
2018-04-13T01:26:41.100Z,1017.56
2018-04-13T01:27:41.097Z,1017.56
2018-04-13T01:28:41.093Z,1017.55
2018-04-13T01:29:41.089Z,1017.56
2018-04-13T01:30:41.085Z,1017.59
2018-04-13T01:31:41.081Z,1017.57
2018-04-13T01:32:41.077Z,1017.6
2018-04-13T01:33:41.073Z,1017.59
2018-04-13T01:34:41.069Z,1017.6
2018-04-13T01:35:41.065Z,1017.56
2018-04-13T01:36:41.063Z,1017.68
2018-04-13T01:37:41.063Z,1017.67
2018-04-13T01:38:41.052Z,1017.74
2018-04-13T01:39:41.050Z,1017.7
2018-04-13T01:40:41.045Z,1017.71
2018-04-13T01:41:41.041Z,1017.72
2018-04-13T01:42:41.037Z,1017.69
2018-04-13T01:43:41.032Z,1017.72
2018-04-13T01:44:41.028Z,1017.67
2018-04-13T01:45:41.026Z,1017.66
2018-04-13T01:46:41.024Z,1017.66
2018-04-13T01:47:41.017Z,1017.67
2018-04-13T01:48:41.012Z,1017.66
2018-04-13T01:49:41.009Z,1017.68
2018-04-13T01:50:41.005Z,1017.71
2018-04-13T01:51:41.001Z,1017.71
2018-04-13T01:52:40.996Z,1017.68
2018-04-13T01:53:40.993Z,1017.65
2018-04-13T01:54:40.989Z,1017.66
2018-04-13T01:55:40.983Z,1017.65
2018-04-13T01:56:40.979Z,1017.68
2018-04-13T01:57:40.976Z,1017.69
2018-04-13T01:58:40.971Z,1017.69
2018-04-13T01:59:40.967Z,1017.73
2018-04-13T02:00:40.963Z,1017.7
2018-04-13T02:01:40.959Z,1017.71
2018-04-13T02:02:40.955Z,1017.72
2018-04-13T02:03:40.951Z,1017.73
2018-04-13T02:04:40.946Z,1017.72
2018-04-13T02:05:40.943Z,1017.7
2018-04-13T02:06:40.938Z,1017.71
2018-04-13T02:07:40.936Z,1017.76
2018-04-13T02:08:40.930Z,1017.72
2018-04-13T02:09:40.926Z,1017.74
2018-04-13T02:10:40.922Z,1017.7
2018-04-13T02:11:40.918Z,1017.74
2018-04-13T02:12:40.913Z,1017.72
2018-04-13T02:13:40.909Z,1017.74
2018-04-13T02:14:40.904Z,1017.68
2018-04-13T02:15:40.902Z,1017.73
2018-04-13T02:16:40.896Z,1017.73
2018-04-13T02:17:40.891Z,1017.74
2018-04-13T02:18:40.887Z,1017.73
2018-04-13T02:19:40.883Z,1017.71
2018-04-13T02:20:40.879Z,1017.69
2018-04-13T02:21:40.877Z,1017.67
2018-04-13T02:22:40.870Z,1017.67
2018-04-13T02:23:40.867Z,1017.65
2018-04-13T02:24:40.863Z,1017.64
2018-04-13T02:25:40.856Z,1017.67
2018-04-13T02:26:40.853Z,1017.66
2018-04-13T02:27:40.849Z,1017.64
2018-04-13T02:28:40.849Z,1017.66
2018-04-13T02:29:40.840Z,1017.6
2018-04-13T02:30:40.835Z,1017.57
2018-04-13T02:31:40.831Z,1017.58
2018-04-13T02:32:40.827Z,1017.56
2018-04-13T02:33:40.823Z,1017.54
2018-04-13T02:34:40.890Z,1017.58
2018-04-13T02:35:40.815Z,1017.57
2018-04-13T02:36:40.809Z,1017.6
2018-04-13T02:37:40.806Z,1017.62
2018-04-13T02:38:40.805Z,1017.58
2018-04-13T02:39:40.797Z,1017.6
2018-04-13T02:40:40.800Z,1017.62
2018-04-13T02:41:40.793Z,1017.6
2018-04-13T02:42:40.787Z,1017.58
2018-04-13T02:43:40.779Z,1017.59
2018-04-13T02:44:40.776Z,1017.68
2018-04-13T02:45:40.772Z,1017.63
2018-04-13T02:46:40.768Z,1017.67
2018-04-13T02:47:40.763Z,1017.7
2018-04-13T02:48:40.759Z,1017.65
2018-04-13T02:49:40.755Z,1017.69
2018-04-13T02:50:40.801Z,1017.75
2018-04-13T02:51:40.746Z,1017.7
2018-04-13T02:52:40.741Z,1017.75
2018-04-13T02:53:40.737Z,1017.75
2018-04-13T02:54:40.731Z,1017.77
2018-04-13T02:55:40.728Z,1017.77
2018-04-13T02:56:40.726Z,1017.73
2018-04-13T02:57:40.721Z,1017.78
2018-04-13T02:58:40.715Z,1017.68
2018-04-13T02:59:40.809Z,1017.77
2018-04-13T03:00:40.708Z,1017.72
2018-04-13T03:01:40.703Z,1017.76
2018-04-13T03:02:40.698Z,1017.74
2018-04-13T03:03:40.694Z,1017.74
2018-04-13T03:04:40.690Z,1017.82
2018-04-13T03:05:40.690Z,1017.75
2018-04-13T03:06:40.681Z,1017.79
2018-04-13T03:07:40.680Z,1017.75
2018-04-13T03:08:40.672Z,1017.82
2018-04-13T03:09:40.670Z,1017.82
2018-04-13T03:10:40.666Z,1017.81
2018-04-13T03:11:40.661Z,1017.82
2018-04-13T03:12:40.661Z,1017.8
2018-04-13T03:13:40.653Z,1017.83
2018-04-13T03:14:40.658Z,1017.85
2018-04-13T03:15:40.645Z,1017.8
2018-04-13T03:16:40.640Z,1017.86
2018-04-13T03:17:40.637Z,1017.85
2018-04-13T03:18:40.633Z,1017.79
2018-04-13T03:19:40.634Z,1017.78
2018-04-13T03:20:40.624Z,1017.78
2018-04-13T03:21:40.620Z,1017.75
2018-04-13T03:22:40.616Z,1017.72
2018-04-13T03:23:40.612Z,1017.77
2018-04-13T03:24:40.607Z,1017.7
2018-04-13T03:25:40.603Z,1017.7
2018-04-13T03:26:40.599Z,1017.72
2018-04-13T03:27:40.593Z,1017.69
2018-04-13T03:28:40.590Z,1017.67
2018-04-13T03:29:40.587Z,1017.67
2018-04-13T03:30:40.581Z,1017.62
2018-04-13T03:31:40.579Z,1017.66
2018-04-13T03:32:40.574Z,1017.67
2018-04-13T03:33:40.570Z,1017.76
2018-04-13T03:34:40.564Z,1017.8
2018-04-13T03:35:40.561Z,1017.77
2018-04-13T03:36:40.556Z,1017.78
2018-04-13T03:37:40.552Z,1017.79
2018-04-13T03:38:40.548Z,1017.74
2018-04-13T03:39:40.544Z,1017.75
2018-04-13T03:40:40.539Z,1017.67
2018-04-13T03:41:40.534Z,1017.68
2018-04-13T03:42:40.531Z,1017.74
2018-04-13T03:43:40.528Z,1017.74
2018-04-13T03:44:40.524Z,1017.8
2018-04-13T03:45:40.520Z,1017.74
2018-04-13T03:46:40.515Z,1017.72
2018-04-13T03:47:40.518Z,1017.68
2018-04-13T03:48:40.508Z,1017.74
2018-04-13T03:49:40.503Z,1017.75
2018-04-13T03:50:40.501Z,1017.76
2018-04-13T03:51:40.496Z,1017.75
2018-04-13T03:52:40.503Z,1017.75
2018-04-13T03:53:40.488Z,1017.77
2018-04-13T03:54:40.488Z,1017.77
2018-04-13T03:55:40.480Z,1017.73
2018-04-13T03:56:40.476Z,1017.77
2018-04-13T03:57:40.472Z,1017.74
2018-04-13T03:58:40.471Z,1017.76
2018-04-13T03:59:40.464Z,1017.75
2018-04-13T04:00:40.459Z,1017.76
2018-04-13T04:01:40.458Z,1017.78
2018-04-13T04:02:40.452Z,1017.76
2018-04-13T04:03:40.451Z,1017.79
2018-04-13T04:04:40.443Z,1017.8
2018-04-13T04:05:40.439Z,1017.85
2018-04-13T04:06:40.437Z,1017.82
2018-04-13T04:07:40.431Z,1017.8
2018-04-13T04:08:40.427Z,1017.78
2018-04-13T04:09:40.424Z,1017.82
2018-04-13T04:10:40.419Z,1017.86
2018-04-13T04:11:40.415Z,1017.83
2018-04-13T04:12:40.410Z,1017.83
2018-04-13T04:13:40.407Z,1017.9
2018-04-13T04:14:40.402Z,1017.91
2018-04-13T04:15:40.399Z,1017.94
2018-04-13T04:16:40.395Z,1017.99
2018-04-13T04:17:40.392Z,1017.94
2018-04-13T04:18:40.386Z,1017.96
2018-04-13T04:19:40.386Z,1018
2018-04-13T04:20:40.380Z,1017.99
2018-04-13T04:21:40.375Z,1018.01
2018-04-13T04:22:40.374Z,1018.04
2018-04-13T04:23:40.366Z,1018
2018-04-13T04:24:40.364Z,1017.95
2018-04-13T04:25:40.361Z,1017.92
2018-04-13T04:26:40.358Z,1017.87
2018-04-13T04:27:40.350Z,1017.9
2018-04-13T04:28:40.347Z,1017.91
2018-04-13T04:29:40.342Z,1017.94
2018-04-13T04:30:40.338Z,1017.93
2018-04-13T04:31:40.335Z,1017.98
2018-04-13T04:32:40.331Z,1017.94
2018-04-13T04:33:40.327Z,1017.93
2018-04-13T04:34:40.324Z,1017.91
2018-04-13T04:35:40.320Z,1017.89
2018-04-13T04:36:40.316Z,1017.9
2018-04-13T04:37:40.313Z,1017.86
2018-04-13T04:38:40.310Z,1017.95
2018-04-13T04:39:40.304Z,1017.93
2018-04-13T04:40:40.300Z,1017.88
2018-04-13T04:41:40.296Z,1017.89
2018-04-13T04:42:40.293Z,1017.82
2018-04-13T04:43:40.288Z,1017.8
2018-04-13T04:44:40.284Z,1017.83
2018-04-13T04:45:40.282Z,1017.83
2018-04-13T04:46:40.279Z,1017.75
2018-04-13T04:47:40.278Z,1017.88
2018-04-13T04:48:40.268Z,1017.81
2018-04-13T04:49:40.269Z,1017.84
2018-04-13T04:50:40.261Z,1017.89
2018-04-13T04:51:40.257Z,1017.89
2018-04-13T04:52:40.253Z,1017.9
2018-04-13T04:53:40.250Z,1017.92
2018-04-13T04:54:40.246Z,1017.89
2018-04-13T04:55:40.243Z,1017.94
2018-04-13T04:56:40.239Z,1017.94
2018-04-13T04:57:40.236Z,1017.93
2018-04-13T04:58:40.232Z,1017.9
2018-04-13T04:59:40.284Z,1017.93
2018-04-13T05:00:40.226Z,1017.92
2018-04-13T05:01:40.225Z,1017.92
2018-04-13T05:02:40.219Z,1017.92
2018-04-13T05:03:40.213Z,1017.95
2018-04-13T05:04:40.209Z,1017.96
2018-04-13T05:05:40.205Z,1018.02
2018-04-13T05:06:40.201Z,1018.05
2018-04-13T05:07:40.197Z,1018.08
2018-04-13T05:08:40.202Z,1018.11
2018-04-13T05:09:40.189Z,1018.13
2018-04-13T05:10:40.185Z,1018.08
2018-04-13T05:11:40.198Z,1018.14
2018-04-13T05:12:40.185Z,1018.16
2018-04-13T05:13:40.174Z,1018.24
2018-04-13T05:14:40.170Z,1018.23
2018-04-13T05:15:40.166Z,1018.25
2018-04-13T05:16:40.162Z,1018.19
2018-04-13T05:17:40.159Z,1018.21
2018-04-13T05:18:40.155Z,1018.2
2018-04-13T05:19:40.157Z,1018.19
2018-04-13T05:20:40.148Z,1018.27
2018-04-13T05:21:40.144Z,1018.21
2018-04-13T05:22:40.140Z,1018.23
2018-04-13T05:23:40.137Z,1018.23
2018-04-13T05:24:40.132Z,1018.17
2018-04-13T05:25:40.129Z,1018.21
2018-04-13T05:26:40.129Z,1018.21
2018-04-13T05:27:40.122Z,1018.24
2018-04-13T05:28:40.120Z,1018.18
2018-04-13T05:29:40.116Z,1018.15
2018-04-13T05:30:40.111Z,1018.13
2018-04-13T05:31:40.107Z,1018.1
2018-04-13T05:32:40.105Z,1018.05
2018-04-13T05:33:40.101Z,1018.05
2018-04-13T05:34:40.096Z,1018.02
2018-04-13T05:35:40.091Z,1018.03
2018-04-13T05:36:40.089Z,1018
2018-04-13T05:37:40.085Z,1017.95
2018-04-13T05:38:40.086Z,1017.93
2018-04-13T05:39:40.081Z,1017.94
2018-04-13T05:40:40.073Z,1017.91
2018-04-13T05:41:40.070Z,1017.86
2018-04-13T05:42:40.066Z,1017.82
2018-04-13T05:43:40.064Z,1017.86
2018-04-13T05:44:40.060Z,1017.83
2018-04-13T05:45:40.056Z,1017.82
2018-04-13T05:46:40.051Z,1017.77
2018-04-13T05:47:40.048Z,1017.79
2018-04-13T05:48:40.048Z,1017.8
2018-04-13T05:49:40.041Z,1017.84
2018-04-13T05:50:40.038Z,1017.87
2018-04-13T05:51:40.034Z,1017.76
2018-04-13T05:52:40.031Z,1017.72
2018-04-13T05:53:40.028Z,1017.72
2018-04-13T05:54:40.024Z,1017.68
2018-04-13T05:55:40.021Z,1017.65
2018-04-13T05:56:40.026Z,1017.71
2018-04-13T05:57:40.015Z,1017.7
2018-04-13T05:58:40.011Z,1017.69
2018-04-13T05:59:40.022Z,1017.73
2018-04-13T06:00:40.015Z,1017.73
2018-04-13T06:01:39.999Z,1017.81
2018-04-13T06:02:39.998Z,1017.79
2018-04-13T06:03:40.026Z,1017.82
2018-04-13T06:04:39.990Z,1017.87
2018-04-13T06:05:39.987Z,1017.94
2018-04-13T06:06:39.983Z,1017.94
2018-04-13T06:07:39.980Z,1017.94
2018-04-13T06:08:39.977Z,1017.97
2018-04-13T06:09:39.976Z,1017.9
2018-04-13T06:10:39.972Z,1017.98
2018-04-13T06:11:39.968Z,1017.92
2018-04-13T06:12:39.963Z,1018.05
2018-04-13T06:13:39.961Z,1018.13
2018-04-13T06:14:39.957Z,1018.13
2018-04-13T06:15:39.954Z,1018.18
2018-04-13T06:16:39.949Z,1018.33
2018-04-13T06:17:39.952Z,1018.56
2018-04-13T06:18:39.946Z,1018.68
2018-04-13T06:19:39.939Z,1018.85
2018-04-13T06:20:39.935Z,1018.86
2018-04-13T06:21:39.932Z,1018.99
2018-04-13T06:22:39.931Z,1019.16
2018-04-13T06:23:39.925Z,1019.3
2018-04-13T06:24:39.921Z,1019.36
2018-04-13T06:25:39.918Z,1019.46
2018-04-13T06:26:39.914Z,1019.56
2018-04-13T06:27:39.910Z,1019.59
2018-04-13T06:28:39.906Z,1019.68
2018-04-13T06:29:39.902Z,1019.73
2018-04-13T06:30:39.898Z,1019.85
2018-04-13T06:31:39.894Z,1019.95
2018-04-13T06:32:39.891Z,1019.98
2018-04-13T06:33:39.888Z,1020.09
2018-04-13T06:34:39.886Z,1020.16
2018-04-13T06:35:39.881Z,1020.15
2018-04-13T06:36:39.875Z,1020.22
2018-04-13T06:37:39.872Z,1020.27
2018-04-13T06:38:39.866Z,1020.33
2018-04-13T06:39:39.861Z,1020.34
2018-04-13T06:40:39.857Z,1020.39
2018-04-13T06:41:39.854Z,1020.32
2018-04-13T06:42:39.850Z,1020.22
2018-04-13T06:43:39.899Z,1020.3
2018-04-13T06:44:39.843Z,1020.27
2018-04-13T06:45:39.843Z,1020.32
2018-04-13T06:46:39.832Z,1020.39
2018-04-13T06:47:39.828Z,1020.43
2018-04-13T06:48:39.829Z,1020.3
2018-04-13T06:49:39.818Z,1020.26
2018-04-13T06:50:39.814Z,1020.27
2018-04-13T06:51:39.808Z,1020.3
2018-04-13T06:52:39.804Z,1020.28
2018-04-13T06:53:39.800Z,1020.23
2018-04-13T06:54:39.797Z,1020.28
2018-04-13T06:55:39.806Z,1020.27
2018-04-13T06:56:39.805Z,1020.29
2018-04-13T06:57:39.783Z,1020.23
2018-04-13T06:58:39.779Z,1020.21
2018-04-13T06:59:39.777Z,1020.27
2018-04-13T07:00:39.770Z,1020.22
2018-04-13T07:01:39.766Z,1020.17
2018-04-13T07:02:39.761Z,1020.09
2018-04-13T07:03:39.762Z,1020.11
2018-04-13T07:04:39.761Z,1020.02
2018-04-13T07:05:39.749Z,1020.04
2018-04-13T07:06:39.743Z,1020.1
2018-04-13T07:07:39.741Z,1020.09
2018-04-13T07:08:39.735Z,1020.14
2018-04-13T07:09:39.730Z,1020.2
2018-04-13T07:10:39.726Z,1020.26
2018-04-13T07:11:39.721Z,1020.27
2018-04-13T07:12:39.724Z,1020.23
2018-04-13T07:13:39.759Z,1020.18
2018-04-13T07:14:39.711Z,1020.16
2018-04-13T07:15:39.716Z,1020.22
2018-04-13T07:16:39.699Z,1020.19
2018-04-13T07:17:39.694Z,1020.15
2018-04-13T07:18:39.690Z,1020.18
2018-04-13T07:19:39.685Z,1020.27
2018-04-13T07:20:39.682Z,1020.28
2018-04-13T07:21:39.676Z,1020.37
2018-04-13T07:22:39.672Z,1020.42
2018-04-13T07:23:39.669Z,1020.56
2018-04-13T07:24:39.662Z,1020.6
2018-04-13T07:25:39.658Z,1020.61
2018-04-13T07:26:39.662Z,1020.64
2018-04-13T07:27:39.649Z,1020.63
2018-04-13T07:28:39.644Z,1020.63
2018-04-13T07:29:39.642Z,1020.69
2018-04-13T07:30:39.636Z,1020.71
2018-04-13T07:31:39.631Z,1020.82
2018-04-13T07:32:39.629Z,1020.95
2018-04-13T07:33:39.623Z,1021.01
2018-04-13T07:34:39.617Z,1020.98
2018-04-13T07:35:39.612Z,1020.94
2018-04-13T07:36:39.608Z,1020.91
2018-04-13T07:37:39.608Z,1021.02
2018-04-13T07:38:39.598Z,1021.11
2018-04-13T07:39:40.001Z,1021.12
2018-04-13T07:40:39.598Z,1021
2018-04-13T07:41:39.584Z,1021.03
2018-04-13T07:42:39.593Z,1020.99
2018-04-13T07:43:39.583Z,1021.02
2018-04-13T07:44:39.569Z,1020.84
2018-04-13T07:45:39.566Z,1020.85
2018-04-13T07:46:39.561Z,1020.8
2018-04-13T07:47:39.555Z,1020.78
2018-04-13T07:48:39.550Z,1020.79
2018-04-13T07:49:39.550Z,1020.68
2018-04-13T07:50:39.540Z,1020.74
2018-04-13T07:51:39.540Z,1020.69
2018-04-13T07:52:39.536Z,1020.64
2018-04-13T07:53:39.525Z,1020.67
2018-04-13T07:54:39.521Z,1020.56
2018-04-13T07:55:39.516Z,1020.6
2018-04-13T07:56:39.513Z,1020.64
2018-04-13T07:57:39.509Z,1020.62
2018-04-13T07:58:39.507Z,1020.57
2018-04-13T07:59:39.518Z,1020.69
2018-04-13T08:00:39.492Z,1020.55
2018-04-13T08:01:39.487Z,1020.68
2018-04-13T08:02:39.482Z,1020.51
2018-04-13T08:03:39.478Z,1020.46
2018-04-13T08:04:39.472Z,1020.32
2018-04-13T08:05:39.467Z,1020.32
2018-04-13T08:06:39.461Z,1020.13
2018-04-13T08:07:39.457Z,1020.03
2018-04-13T08:08:39.453Z,1020.09
2018-04-13T08:09:39.447Z,1020.17
2018-04-13T08:10:39.442Z,1020.22
2018-04-13T08:11:39.437Z,1020.16
2018-04-13T08:12:39.433Z,1020.04
2018-04-13T08:13:39.427Z,1019.83
2018-04-13T08:14:39.585Z,1019.59
2018-04-13T08:15:39.435Z,1019.36
2018-04-13T08:16:39.413Z,1019
2018-04-13T08:17:39.408Z,1018.58
2018-04-13T08:18:39.403Z,1018.17
2018-04-13T08:19:39.399Z,1017.9
2018-04-13T08:20:39.395Z,1017.78
2018-04-13T08:21:39.391Z,1017.72
2018-04-13T08:22:39.401Z,1017.66
2018-04-13T08:23:39.382Z,1017.72
2018-04-13T08:24:39.387Z,1017.67
2018-04-13T08:25:39.376Z,1017.72
2018-04-13T08:26:39.373Z,1017.7
2018-04-13T08:27:39.371Z,1017.68
2018-04-13T08:28:39.362Z,1017.72
2018-04-13T08:29:39.443Z,1017.74
2018-04-13T08:30:39.354Z,1017.68
2018-04-13T08:31:39.420Z,1017.7
2018-04-13T08:32:39.349Z,1017.73
2018-04-13T08:33:39.434Z,1017.74
2018-04-13T08:34:39.351Z,1017.74
2018-04-13T08:35:39.357Z,1017.69
2018-04-13T08:36:39.333Z,1017.62
2018-04-13T08:37:39.340Z,1017.64
2018-04-13T08:38:39.327Z,1017.68
2018-04-13T08:39:39.340Z,1017.79
2018-04-13T08:40:39.319Z,1017.91
2018-04-13T08:41:39.354Z,1017.9
2018-04-13T08:42:39.313Z,1017.96
2018-04-13T08:43:39.318Z,1017.9
2018-04-13T08:44:39.309Z,1017.86
2018-04-13T08:45:39.302Z,1017.82
2018-04-13T08:46:39.313Z,1017.76
2018-04-13T08:47:39.597Z,1017.66
2018-04-13T08:48:39.328Z,1017.6
2018-04-13T08:49:39.292Z,1017.57
2018-04-13T08:50:39.291Z,1017.53
2018-04-13T08:51:39.285Z,1017.52
2018-04-13T08:52:39.280Z,1017.51
2018-04-13T08:53:39.304Z,1017.48
2018-04-13T08:54:39.285Z,1017.45
2018-04-13T08:55:39.284Z,1017.43
2018-04-13T08:56:39.271Z,1017.43
2018-04-13T08:57:39.335Z,1017.32
2018-04-13T08:58:39.267Z,1017.2
2018-04-13T08:59:39.263Z,1016.99
2018-04-13T09:00:39.305Z,1016.91
2018-04-13T09:01:39.255Z,1016.69
2018-04-13T09:02:39.254Z,1016.5
2018-04-13T09:03:39.250Z,1016.31
2018-04-13T09:04:39.258Z,1016.15
2018-04-13T09:05:39.249Z,1016.15
2018-04-13T09:06:39.276Z,1016.09
2018-04-13T09:07:39.242Z,1016.01
2018-04-13T09:08:39.241Z,1016.09
2018-04-13T09:09:39.250Z,1016.17
2018-04-13T09:10:39.237Z,1016.23
2018-04-13T09:11:39.252Z,1016.29
2018-04-13T09:12:39.235Z,1016.39
2018-04-13T09:13:39.234Z,1016.48
2018-04-13T09:14:39.231Z,1016.55
2018-04-13T09:15:39.232Z,1016.64
2018-04-13T09:16:39.233Z,1016.73
2018-04-13T09:17:39.229Z,1016.77
2018-04-13T09:18:39.227Z,1016.74
2018-04-13T09:19:39.227Z,1016.77
2018-04-13T09:20:39.256Z,1016.66
2018-04-13T09:21:39.231Z,1016.63
2018-04-13T09:22:39.239Z,1016.69
2018-04-13T09:23:39.228Z,1016.68
2018-04-13T09:24:39.222Z,1016.63
2018-04-13T09:25:39.220Z,1016.55
2018-04-13T09:26:39.219Z,1016.49
2018-04-13T09:27:39.229Z,1016.5
2018-04-13T09:28:39.218Z,1016.55
2018-04-13T09:29:39.216Z,1016.59
2018-04-13T09:30:39.236Z,1016.57
2018-04-13T09:31:39.215Z,1016.57
2018-04-13T09:32:39.229Z,1016.59
2018-04-13T09:33:39.220Z,1016.57
2018-04-13T09:34:39.234Z,1016.63
2018-04-13T09:35:39.234Z,1016.78
2018-04-13T09:36:39.220Z,1016.92
2018-04-13T09:37:39.227Z,1016.98
2018-04-13T09:38:39.211Z,1017.09
2018-04-13T09:39:39.245Z,1017.08
2018-04-13T09:40:39.209Z,1017.14
2018-04-13T09:41:39.228Z,1017.18
2018-04-13T09:42:39.220Z,1017.18
2018-04-13T09:43:39.210Z,1017.23
2018-04-13T09:44:39.211Z,1017.35
2018-04-13T09:45:39.218Z,1017.51
2018-04-13T09:46:39.205Z,1017.64
2018-04-13T09:47:39.202Z,1017.83
2018-04-13T09:48:39.203Z,1017.98
2018-04-13T09:49:39.218Z,1018.03
2018-04-13T09:50:39.218Z,1018.11
2018-04-13T09:51:39.204Z,1018.2
2018-04-13T09:52:39.208Z,1018.28
2018-04-13T09:53:39.208Z,1018.26
2018-04-13T09:54:39.194Z,1018.26
2018-04-13T09:55:39.194Z,1018.36
2018-04-13T09:56:39.203Z,1018.43
2018-04-13T09:57:39.197Z,1018.53
2018-04-13T09:58:39.191Z,1018.6
2018-04-13T09:59:39.189Z,1018.7
2018-04-13T10:00:39.203Z,1018.77
2018-04-13T10:01:39.185Z,1018.86
2018-04-13T10:02:39.188Z,1019.08
2018-04-13T10:03:39.188Z,1019.14
2018-04-13T10:04:39.184Z,1019.21
2018-04-13T10:05:39.193Z,1019.25
2018-04-13T10:06:39.187Z,1019.35
2018-04-13T10:07:39.188Z,1019.39
2018-04-13T10:08:39.173Z,1019.36
2018-04-13T10:09:39.176Z,1019.33
2018-04-13T10:10:39.178Z,1019.28
2018-04-13T10:11:39.172Z,1019.16
2018-04-13T10:12:39.174Z,1019.11
2018-04-13T10:13:39.179Z,1019.06
2018-04-13T10:14:39.159Z,1019.06
2018-04-13T10:15:39.189Z,1019.07
2018-04-13T10:16:39.167Z,1018.99
2018-04-13T10:17:39.159Z,1018.86
2018-04-13T10:18:39.147Z,1018.88
2018-04-13T10:19:39.153Z,1019.04
2018-04-13T10:20:39.142Z,1019.14
2018-04-13T10:21:39.161Z,1019.24
2018-04-13T10:22:39.149Z,1019.27
2018-04-13T10:23:39.139Z,1019.39
2018-04-13T10:24:39.138Z,1019.37
2018-04-13T10:25:39.137Z,1019.4
2018-04-13T10:26:39.128Z,1019.42
2018-04-13T10:27:39.140Z,1019.42
2018-04-13T10:28:39.122Z,1019.44
2018-04-13T10:29:39.123Z,1019.47
2018-04-13T10:30:39.125Z,1019.42
2018-04-13T10:31:39.112Z,1019.53
2018-04-13T10:32:39.119Z,1019.52
2018-04-13T10:33:39.113Z,1019.56
2018-04-13T10:34:39.325Z,1019.58
2018-04-13T10:35:39.104Z,1019.79
2018-04-13T10:36:39.101Z,1019.77
2018-04-13T10:37:39.109Z,1019.84
2018-04-13T10:38:39.092Z,1019.96
2018-04-13T10:39:39.090Z,1019.99
2018-04-13T10:40:39.098Z,1020.1
2018-04-13T10:41:39.083Z,1020.05
2018-04-13T10:42:39.079Z,1020.08
2018-04-13T10:43:39.076Z,1020.15
2018-04-13T10:44:39.074Z,1020.08
2018-04-13T10:45:39.069Z,1020.07
2018-04-13T10:46:39.072Z,1020.06
2018-04-13T10:47:39.063Z,1020.01
2018-04-13T10:48:39.059Z,1019.94
2018-04-13T10:49:39.059Z,1019.97
2018-04-13T10:50:39.053Z,1019.97
2018-04-13T10:51:39.054Z,1019.97
2018-04-13T10:52:39.046Z,1019.89
2018-04-13T10:53:39.042Z,1019.87
2018-04-13T10:54:39.039Z,1019.76
2018-04-13T10:55:39.042Z,1019.92
2018-04-13T10:56:39.032Z,1019.91
2018-04-13T10:57:39.028Z,1019.92
2018-04-13T10:58:39.024Z,1019.74
2018-04-13T10:59:39.025Z,1019.87
2018-04-13T11:00:39.021Z,1019.81
2018-04-13T11:01:39.014Z,1019.87
2018-04-13T11:02:39.011Z,1019.85
2018-04-13T11:03:39.010Z,1019.91
2018-04-13T11:04:39.017Z,1020.05
2018-04-13T11:05:39.004Z,1020.01
2018-04-13T11:06:38.996Z,1019.83
2018-04-13T11:07:38.995Z,1019.58
2018-04-13T11:08:38.991Z,1019.37
2018-04-13T11:09:38.985Z,1019.12
2018-04-13T11:10:38.989Z,1018.72
2018-04-13T11:11:38.977Z,1018.41
2018-04-13T11:12:38.974Z,1018.14
2018-04-13T11:13:38.972Z,1017.99
2018-04-13T11:14:38.975Z,1017.79
2018-04-13T11:15:38.966Z,1017.72
2018-04-13T11:16:38.963Z,1017.62
2018-04-13T11:17:38.964Z,1017.53
2018-04-13T11:18:38.956Z,1017.46
2018-04-13T11:19:38.958Z,1017.39
2018-04-13T11:20:38.954Z,1017.26
2018-04-13T11:21:38.966Z,1017.2
2018-04-13T11:22:38.951Z,1017.04
2018-04-13T11:23:38.943Z,1017.07
2018-04-13T11:24:38.950Z,1017.05
2018-04-13T11:25:38.939Z,1016.91
2018-04-13T11:26:38.940Z,1016.88
2018-04-13T11:27:38.942Z,1016.81
2018-04-13T11:28:38.934Z,1016.74
2018-04-13T11:29:38.929Z,1016.75
2018-04-13T11:30:38.935Z,1016.56
2018-04-13T11:31:38.927Z,1016.45
2018-04-13T11:32:38.934Z,1016.41
2018-04-13T11:33:38.922Z,1016.34
2018-04-13T11:34:38.928Z,1016.3
2018-04-13T11:35:38.928Z,1016.25
2018-04-13T11:36:38.927Z,1016.22
2018-04-13T11:37:38.918Z,1016.26
2018-04-13T11:38:38.917Z,1016.27
2018-04-13T11:39:38.920Z,1016.24
2018-04-13T11:40:38.918Z,1016.27
2018-04-13T11:41:38.913Z,1016.22
2018-04-13T11:42:38.912Z,1016.17
2018-04-13T11:43:38.923Z,1016.18
2018-04-13T11:44:38.910Z,1016.23
2018-04-13T11:45:38.911Z,1016.33
2018-04-13T11:46:38.910Z,1016.2
2018-04-13T11:47:38.912Z,1016.2
2018-04-13T11:48:38.909Z,1016.11
2018-04-13T11:49:38.916Z,1016.18
2018-04-13T11:50:38.908Z,1016.1
2018-04-13T11:51:38.919Z,1016.06
2018-04-13T11:52:38.910Z,1016.14
2018-04-13T11:53:38.906Z,1016.06
2018-04-13T11:54:38.912Z,1016.14
2018-04-13T11:55:38.905Z,1016.15
2018-04-13T11:56:38.905Z,1016.14
2018-04-13T11:57:38.906Z,1016.13
2018-04-13T11:58:38.905Z,1016.13
2018-04-13T11:59:38.905Z,1016.27
2018-04-13T12:00:38.905Z,1016.24
2018-04-13T12:01:38.907Z,1016.26
2018-04-13T12:02:38.904Z,1016.31
2018-04-13T12:03:38.904Z,1016.43
2018-04-13T12:04:38.904Z,1016.44
2018-04-13T12:05:38.904Z,1016.53
2018-04-13T12:06:38.903Z,1016.55
2018-04-13T12:07:38.903Z,1016.63
2018-04-13T12:08:38.903Z,1016.55